createdAt,value
2018-11-27T00:20:59.134Z,40.23
2018-11-27T00:23:27.878Z,40.93
2018-11-27T00:25:56.797Z,44.33
2018-11-27T00:28:25.551Z,47.03
2018-11-27T00:30:54.433Z,41.83
2018-11-27T00:33:23.223Z,42.07
2018-11-27T00:35:51.993Z,44.83
2018-11-27T00:38:20.981Z,43.53
2018-11-27T00:40:49.805Z,48.47
2018-11-27T00:43:18.635Z,44.07
2018-11-27T00:45:47.365Z,42.73
2018-11-27T00:48:16.274Z,43.73
2018-11-27T00:50:45.779Z,41.83
2018-11-27T00:53:14.555Z,44.37
2018-11-27T00:55:43.484Z,41.23
2018-11-27T00:58:12.372Z,40.33
2018-11-27T01:00:41.861Z,40.30
2018-11-27T01:03:11.030Z,40.77
2018-11-27T01:05:39.862Z,41.13
2018-11-27T01:08:08.446Z,38.58
2018-11-27T01:10:37.617Z,42.30
2018-11-27T01:13:06.527Z,41.63
2018-11-27T01:15:35.148Z,40.50
2018-11-27T01:18:03.807Z,36.87
2018-11-27T01:20:32.563Z,38.83
2018-11-27T01:23:01.290Z,39.70
2018-11-27T01:25:30.571Z,40.77
2018-11-27T01:28:00.012Z,37.03
2018-11-27T01:30:28.501Z,38.77
2018-11-27T01:32:56.971Z,37.60
2018-11-27T01:35:25.515Z,35.50
2018-11-27T01:37:55.279Z,37.37
2018-11-27T01:40:25.830Z,40.27
2018-11-27T01:42:56.282Z,34.63
2018-11-27T01:45:25.285Z,38.30
2018-11-27T01:47:54.069Z,41.33
2018-11-27T01:50:22.539Z,40.20
2018-11-27T01:52:51.130Z,34.73
2018-11-27T01:55:21.010Z,35.57
2018-11-27T01:57:49.656Z,36.60
2018-11-27T02:00:25.547Z,37.60
2018-11-27T02:02:55.017Z,39.87
2018-11-27T02:05:24.359Z,35.70
2018-11-27T02:07:53.067Z,35.83
2018-11-27T02:10:21.617Z,36.90
2018-11-27T02:12:51.325Z,36.47
2018-11-27T02:15:23.235Z,34.93
2018-11-27T02:17:51.733Z,34.60
2018-11-27T02:20:20.478Z,35.40
2018-11-27T02:22:49.166Z,34.60
2018-11-27T02:25:19.926Z,34.40
2018-11-27T02:27:48.418Z,36.33
2018-11-27T02:30:19.771Z,36.33
2018-11-27T02:32:48.485Z,32.27
2018-11-27T02:35:19.377Z,32.23
2018-11-27T02:37:49.683Z,35.80
2018-11-27T02:40:18.898Z,32.53
2018-11-27T02:42:47.521Z,36.70
2018-11-27T02:45:17.831Z,34.43
2018-11-27T02:47:47.074Z,32.48
2018-11-27T02:50:17.164Z,33.30
2018-11-27T02:52:46.227Z,35.77
2018-11-27T02:55:17.588Z,31.30
2018-11-27T02:57:46.196Z,36.07
2018-11-27T03:00:15.982Z,35.57
2018-11-27T03:02:44.503Z,37.30
2018-11-27T03:05:15.463Z,30.95
2018-11-27T03:07:44.024Z,33.80
2018-11-27T03:10:13.972Z,31.00
2018-11-27T03:12:42.515Z,31.27
2018-11-27T03:15:12.675Z,32.10
2018-11-27T03:17:41.669Z,29.67
2018-11-27T03:20:12.372Z,38.20
2018-11-27T03:22:40.955Z,30.00
2018-11-27T03:25:12.783Z,32.23
2018-11-27T03:27:41.463Z,31.83
2018-11-27T03:30:12.322Z,33.90
2018-11-27T03:32:41.797Z,33.00
2018-11-27T03:35:15.339Z,30.30
2018-11-27T03:37:44.475Z,31.93
2018-11-27T03:40:15.195Z,32.20
2018-11-27T03:42:43.550Z,33.23
2018-11-27T03:45:13.352Z,29.87
2018-11-27T03:47:41.946Z,33.37
2018-11-27T03:50:16.555Z,34.70
2018-11-27T03:52:45.123Z,31.53
2018-11-27T03:55:13.896Z,31.57
2018-11-27T03:57:42.656Z,34.57
2018-11-27T04:00:18.518Z,29.18
2018-11-27T04:02:54.646Z,29.97
2018-11-27T04:05:24.721Z,33.53
2018-11-27T04:07:53.018Z,32.17
2018-11-27T04:10:21.300Z,32.37
2018-11-27T04:12:50.292Z,29.77
2018-11-27T04:15:18.974Z,30.80
2018-11-27T04:17:47.806Z,35.67
2018-11-27T04:20:16.247Z,32.25
2018-11-27T04:22:45.052Z,31.63
2018-11-27T04:25:14.802Z,28.37
2018-11-27T04:27:44.515Z,32.07
2018-11-27T04:30:14.271Z,32.27
2018-11-27T04:32:42.711Z,32.33
2018-11-27T04:35:11.751Z,32.43
2018-11-27T04:37:40.439Z,33.43
2018-11-27T04:40:11.879Z,31.20
2018-11-27T04:42:40.630Z,31.97
2018-11-27T04:45:11.621Z,29.40
2018-11-27T04:47:40.459Z,30.77
2018-11-27T04:50:10.374Z,29.77
2018-11-27T04:52:39.098Z,30.23
2018-11-27T04:55:10.591Z,33.50
2018-11-27T04:57:39.239Z,34.40
2018-11-27T05:00:21.785Z,32.73
2018-11-27T05:02:50.568Z,33.00
2018-11-27T05:05:19.156Z,32.07
2018-11-27T05:07:47.676Z,31.17
2018-11-27T05:10:19.754Z,33.97
2018-11-27T05:12:47.921Z,29.33
2018-11-27T05:15:18.364Z,33.70
2018-11-27T05:17:48.414Z,36.13
2018-11-27T05:20:16.936Z,32.07
2018-11-27T05:22:45.286Z,33.60
2018-11-27T05:25:15.234Z,35.43
2018-11-27T05:27:46.951Z,33.20
2018-11-27T05:30:19.513Z,32.57
2018-11-27T05:32:48.163Z,32.53
2018-11-27T05:35:16.934Z,32.43
2018-11-27T05:37:46.853Z,34.00
2018-11-27T05:40:20.146Z,34.77
2018-11-27T05:42:50.294Z,32.07
2018-11-27T05:45:19.850Z,30.67
2018-11-27T05:47:48.713Z,29.97
2018-11-27T05:50:18.293Z,32.17
2018-11-27T05:52:47.237Z,33.47
2018-11-27T05:55:15.866Z,30.00
2018-11-27T05:57:45.852Z,30.93
2018-11-27T06:00:16.556Z,30.03
2018-11-27T06:02:45.797Z,33.47
2018-11-27T06:05:16.062Z,30.20
2018-11-27T06:07:44.828Z,28.87
2018-11-27T06:10:14.521Z,31.83
2018-11-27T06:12:43.078Z,31.30
2018-11-27T06:15:13.147Z,29.50
2018-11-27T06:17:42.432Z,29.93
2018-11-27T06:20:13.412Z,31.07
2018-11-27T06:22:42.705Z,29.10
2018-11-27T06:25:12.858Z,32.83
2018-11-27T06:27:42.234Z,31.60
2018-11-27T06:30:19.137Z,31.23
2018-11-27T06:32:47.771Z,28.23
2018-11-27T06:35:24.564Z,29.10
2018-11-27T06:37:53.446Z,28.37
2018-11-27T06:40:22.406Z,28.60
2018-11-27T06:42:51.278Z,28.60
2018-11-27T06:45:20.832Z,26.13
2018-11-27T06:47:50.278Z,26.87
2018-11-27T06:50:18.817Z,26.10
2018-11-27T06:52:47.451Z,27.93
2018-11-27T06:55:17.231Z,29.30
2018-11-27T06:57:45.772Z,29.90
2018-11-27T07:00:18.164Z,28.07
2018-11-27T07:02:46.641Z,25.43
2018-11-27T07:05:15.201Z,25.45
2018-11-27T07:07:44.193Z,26.17
2018-11-27T07:10:17.445Z,26.27
2018-11-27T07:12:46.205Z,30.50
2018-11-27T07:15:17.362Z,27.33
2018-11-27T07:17:46.052Z,25.60
2018-11-27T07:20:14.756Z,23.57
2018-11-27T07:22:43.352Z,24.07
2018-11-27T07:25:13.121Z,22.10
2018-11-27T07:27:43.640Z,22.60
2018-11-27T07:30:14.608Z,23.53
2018-11-27T07:32:43.166Z,22.27
2018-11-27T07:35:13.035Z,23.60
2018-11-27T07:37:41.558Z,23.75
2018-11-27T07:40:14.713Z,27.67
2018-11-27T07:42:43.466Z,28.97
2018-11-27T07:45:16.106Z,26.23
2018-11-27T07:47:44.600Z,26.37
2018-11-27T07:50:14.005Z,28.53
2018-11-27T07:52:43.008Z,27.70
2018-11-27T07:55:20.488Z,26.73
2018-11-27T07:57:50.311Z,29.30
2018-11-27T08:00:21.363Z,27.93
2018-11-27T08:02:52.039Z,27.87
2018-11-27T08:05:22.711Z,27.87
2018-11-27T08:07:53.399Z,29.00
2018-11-27T08:10:24.124Z,27.40
2018-11-27T08:13:08.402Z,28.63
2018-11-27T08:15:37.235Z,28.07
2018-11-27T08:18:05.914Z,31.47
2018-11-27T08:20:35.219Z,28.27
2018-11-27T08:23:04.697Z,28.23
2018-11-27T08:25:35.002Z,28.43
2018-11-27T08:28:03.807Z,29.07
2018-11-27T08:30:32.406Z,27.10
2018-11-27T08:33:01.102Z,29.07
2018-11-27T08:35:30.403Z,27.07
2018-11-27T08:38:00.306Z,25.53
2018-11-27T08:40:32.196Z,31.33
2018-11-27T08:43:01.001Z,28.43
2018-11-27T08:45:29.769Z,29.20
2018-11-27T08:48:03.478Z,28.83
2018-11-27T08:50:31.985Z,29.00
2018-11-27T08:53:02.991Z,30.43
2018-11-27T08:55:34.401Z,30.17
2018-11-27T08:58:03.699Z,27.90
2018-11-27T09:00:32.286Z,28.60
2018-11-27T09:03:01.116Z,28.80
2018-11-27T09:05:30.561Z,28.97
2018-11-27T09:07:59.160Z,27.00
2018-11-27T09:10:27.890Z,28.50
2018-11-27T09:12:56.633Z,30.43
2018-11-27T09:15:25.228Z,30.40
2018-11-27T09:17:56.595Z,26.20
2018-11-27T09:20:25.286Z,28.23
2018-11-27T09:22:54.644Z,27.27
2018-11-27T09:25:23.270Z,27.80
2018-11-27T09:27:52.158Z,27.63
2018-11-27T09:30:22.922Z,27.13
2018-11-27T09:32:51.865Z,29.57
2018-11-27T09:35:20.683Z,27.40
2018-11-27T09:37:49.207Z,27.03
2018-11-27T09:40:19.214Z,29.00
2018-11-27T09:42:47.955Z,27.77
2018-11-27T09:45:19.418Z,31.60
2018-11-27T09:47:49.625Z,26.50
2018-11-27T09:50:18.543Z,30.20
2018-11-27T09:52:47.122Z,29.67
2018-11-27T09:55:18.840Z,29.83
2018-11-27T09:57:47.424Z,26.70
2018-11-27T10:00:22.063Z,26.07
2018-11-27T10:02:51.863Z,29.67
2018-11-27T10:05:20.598Z,25.57
2018-11-27T10:07:49.250Z,27.80
2018-11-27T10:10:19.483Z,28.10
2018-11-27T10:12:48.863Z,27.07
2018-11-27T10:15:21.551Z,28.75
2018-11-27T10:17:51.651Z,28.83
2018-11-27T10:20:21.337Z,26.70
2018-11-27T10:22:50.114Z,28.43
2018-11-27T10:25:19.232Z,28.67
2018-11-27T10:27:47.874Z,29.03
2018-11-27T10:30:19.550Z,29.30
2018-11-27T10:32:48.387Z,29.63
2018-11-27T10:35:19.400Z,28.62
2018-11-27T10:37:48.280Z,27.77
2018-11-27T10:40:16.888Z,29.70
2018-11-27T10:42:45.507Z,26.40
2018-11-27T10:45:15.361Z,27.47
2018-11-27T10:47:44.816Z,27.00
2018-11-27T10:50:14.697Z,28.95
2018-11-27T10:52:45.325Z,28.83
2018-11-27T10:55:15.091Z,28.47
2018-11-27T10:57:44.023Z,30.30
2018-11-27T11:00:22.131Z,32.37
2018-11-27T11:02:55.818Z,25.37
2018-11-27T11:05:27.776Z,28.95
2018-11-27T11:07:56.199Z,28.83
2018-11-27T11:10:24.770Z,25.87
2018-11-27T11:12:53.680Z,28.20
2018-11-27T11:15:22.517Z,29.45
2018-11-27T11:17:51.036Z,26.30
2018-11-27T11:20:20.401Z,26.62
2018-11-27T11:22:49.033Z,30.47
2018-11-27T11:25:21.314Z,28.53
2018-11-27T11:27:53.626Z,28.87
2018-11-27T11:30:22.641Z,27.43
2018-11-27T11:32:51.752Z,28.92
2018-11-27T11:35:20.451Z,26.12
2018-11-27T11:37:49.442Z,29.03
2018-11-27T11:40:20.312Z,28.13
2018-11-27T11:42:50.336Z,28.70
2018-11-27T11:45:19.254Z,29.37
2018-11-27T11:47:47.935Z,29.83
2018-11-27T11:50:19.262Z,25.20
2018-11-27T11:52:50.358Z,31.57
2018-11-27T11:55:19.949Z,26.63
2018-11-27T11:57:48.533Z,25.57
2018-11-27T12:12:29.276Z,23.13
2018-11-27T12:14:58.009Z,24.20
2018-11-27T12:17:26.595Z,23.07
2018-11-27T12:19:55.175Z,23.38
2018-11-27T12:22:23.815Z,24.13
2018-11-27T12:24:52.485Z,23.73
2018-11-27T12:27:21.150Z,22.00
2018-11-27T12:29:49.680Z,23.60
2018-11-27T12:32:18.580Z,25.57
2018-11-27T12:34:47.072Z,24.67
2018-11-27T12:37:16.275Z,23.60
2018-11-27T12:39:52.231Z,26.57
2018-11-27T12:42:20.974Z,22.23
2018-11-27T12:44:49.525Z,22.83
2018-11-27T12:47:19.371Z,23.20
2018-11-27T12:49:48.135Z,23.53
2018-11-27T12:52:17.406Z,24.37
2018-11-27T12:54:46.029Z,25.93
2018-11-27T12:57:14.848Z,26.30
2018-11-27T12:59:43.571Z,24.63
2018-11-27T13:02:12.258Z,22.43
2018-11-27T13:04:40.836Z,23.83
2018-11-27T13:07:09.608Z,24.23
2018-11-27T13:09:38.612Z,22.60
2018-11-27T13:12:07.320Z,23.57
2018-11-27T13:14:35.840Z,21.27
2018-11-27T13:17:04.344Z,30.63
2018-11-27T13:19:33.043Z,23.53
2018-11-27T13:22:01.541Z,21.07
2018-11-27T13:24:30.082Z,21.67
2018-11-27T13:26:58.769Z,21.07
2018-11-27T13:29:27.515Z,22.23
2018-11-27T13:31:56.039Z,22.07
2018-11-27T13:34:24.548Z,22.43
2018-11-27T13:36:53.548Z,22.35
2018-11-27T13:39:34.598Z,21.63
2018-11-27T13:42:03.306Z,20.77
2018-11-27T13:44:32.237Z,19.37
2018-11-27T13:47:00.735Z,21.03
2018-11-27T13:49:29.192Z,22.00
2018-11-27T13:51:57.814Z,21.27
2018-11-27T13:54:26.320Z,22.43
2018-11-27T13:56:56.391Z,21.03
2018-11-27T13:59:27.074Z,21.50
2018-11-27T14:01:55.709Z,23.20
2018-11-27T14:04:24.167Z,22.07
2018-11-27T14:06:52.911Z,22.00
2018-11-27T14:09:22.170Z,21.90
2018-11-27T14:11:50.765Z,23.50
2018-11-27T14:14:24.048Z,24.27
2018-11-27T14:16:53.539Z,22.93
2018-11-27T14:19:23.777Z,19.50
2018-11-27T14:21:52.501Z,24.83
2018-11-27T14:24:21.654Z,21.90
2018-11-27T14:26:50.443Z,26.43
2018-11-27T14:29:18.911Z,21.50
2018-11-27T14:31:47.502Z,23.97
2018-11-27T14:34:16.167Z,25.50
2018-11-27T14:36:44.716Z,23.50
2018-11-27T14:39:13.325Z,21.63
2018-11-27T14:41:41.817Z,21.97
2018-11-27T14:44:10.369Z,19.50
2018-11-27T14:46:38.835Z,19.53
2018-11-27T14:49:07.351Z,21.00
2018-11-27T14:51:35.775Z,22.40
2018-11-27T14:54:04.581Z,22.87
2018-11-27T14:56:33.082Z,20.77
2018-11-27T14:59:01.555Z,19.80
2018-11-27T15:01:30.140Z,21.37
2018-11-27T15:03:58.914Z,21.83
2018-11-27T15:06:27.915Z,20.77
2018-11-27T15:08:56.481Z,21.53
2018-11-27T15:11:25.429Z,24.37
2018-11-27T15:13:54.054Z,22.63
2018-11-27T15:16:22.696Z,19.67
2018-11-27T15:18:51.726Z,21.63
2018-11-27T15:21:20.369Z,23.87
2018-11-27T15:23:48.835Z,20.23
2018-11-27T15:26:17.362Z,24.03
2018-11-27T15:28:45.973Z,22.07
2018-11-27T15:31:14.457Z,21.77
2018-11-27T15:33:42.967Z,23.03
2018-11-27T15:36:11.736Z,21.17
2018-11-27T15:38:40.337Z,20.83
2018-11-27T15:41:08.918Z,23.77
2018-11-27T15:43:37.570Z,20.17
2018-11-27T15:46:06.493Z,23.23
2018-11-27T15:48:35.113Z,21.63
2018-11-27T15:51:03.606Z,20.17
2018-11-27T15:53:32.219Z,24.87
2018-11-27T15:56:00.893Z,23.53
2018-11-27T15:58:30.045Z,22.83
2018-11-27T16:00:58.786Z,25.30
2018-11-27T16:03:27.679Z,28.50
2018-11-27T16:05:56.890Z,29.10
2018-11-27T16:08:25.402Z,28.23
2018-11-27T16:10:54.318Z,29.00
2018-11-27T16:13:23.005Z,24.43
2018-11-27T16:15:51.527Z,23.97
2018-11-27T16:18:20.222Z,27.47
2018-11-27T16:20:49.116Z,27.23
2018-11-27T16:23:18.049Z,24.50
2018-11-27T16:25:46.753Z,25.70
2018-11-27T16:28:15.357Z,26.30
2018-11-27T16:30:44.218Z,28.73
2018-11-27T16:33:13.180Z,27.85
2018-11-27T16:35:42.177Z,26.03
2018-11-27T16:38:10.737Z,28.27
2018-11-27T16:40:40.030Z,29.47
2018-11-27T16:43:08.936Z,29.20
2018-11-27T16:45:37.731Z,27.93
2018-11-27T16:48:06.503Z,32.07
2018-11-27T16:50:34.707Z,30.23
2018-11-27T16:53:03.994Z,26.73
2018-11-27T16:55:33.094Z,29.93
2018-11-27T16:58:01.406Z,31.77
2018-11-27T17:00:32.574Z,32.27
2018-11-27T17:03:02.334Z,30.00
2018-11-27T17:05:32.192Z,26.23
2018-11-27T17:08:00.894Z,26.20
2018-11-27T17:10:29.513Z,30.07
2018-11-27T17:12:58.665Z,28.33
2018-11-27T17:15:28.267Z,27.77
2018-11-27T17:17:57.164Z,27.93
2018-11-27T17:20:29.934Z,25.33
2018-11-27T17:22:59.957Z,25.47
2018-11-27T17:25:28.811Z,26.47
2018-11-27T17:28:02.078Z,24.53
2018-11-27T17:30:37.777Z,26.90
2018-11-27T17:33:41.743Z,24.70
2018-11-27T17:36:10.789Z,25.43
2018-11-27T17:41:15.384Z,28.07
2018-11-27T17:43:44.307Z,23.67
2018-11-27T17:46:12.909Z,23.07
2018-11-27T17:48:41.615Z,25.77
2018-11-27T17:51:11.150Z,23.70
2018-11-27T17:53:39.966Z,26.40
2018-11-27T17:56:08.923Z,25.83
2018-11-27T17:58:38.478Z,21.90
2018-11-27T18:01:07.075Z,24.63
2018-11-27T18:03:37.029Z,25.20
2018-11-27T18:06:06.112Z,26.27
2018-11-27T18:08:34.979Z,24.00
2018-11-27T18:11:04.143Z,26.10
2018-11-27T18:13:32.840Z,22.77
2018-11-27T18:16:01.784Z,25.20
2018-11-27T18:18:31.092Z,26.13
2018-11-27T18:21:00.269Z,34.67
2018-11-27T18:23:29.194Z,24.33
2018-11-27T18:25:57.838Z,22.10
2018-11-27T18:28:27.163Z,22.53
2018-11-27T18:30:56.202Z,25.57
2018-11-27T18:33:26.037Z,20.43
2018-11-27T18:35:54.955Z,27.43
2018-11-27T18:38:24.847Z,22.80
2018-11-27T18:40:53.978Z,26.47
2018-11-27T18:43:22.929Z,24.60
2018-11-27T18:45:51.838Z,28.50
2018-11-27T18:48:20.742Z,23.37
2018-11-27T18:50:50.008Z,28.73
2018-11-27T18:53:18.694Z,26.57
2018-11-27T18:55:47.430Z,28.17
2018-11-27T18:58:16.643Z,29.00
2018-11-27T19:00:45.370Z,30.27
2018-11-27T19:03:14.213Z,28.87
2018-11-27T19:05:43.238Z,29.83
2018-11-27T19:08:12.177Z,29.53
2018-11-27T19:10:40.833Z,28.90
2018-11-27T19:13:09.808Z,29.37
2018-11-27T19:15:41.361Z,31.17
2018-11-27T19:18:25.680Z,29.80
2018-11-27T19:20:55.039Z,30.07
2018-11-27T19:23:25.198Z,30.90
2018-11-27T19:25:54.280Z,32.30
2018-11-27T19:28:23.171Z,29.67
2018-11-27T19:30:52.662Z,28.53
2018-11-27T19:33:21.343Z,31.60
2018-11-27T19:35:50.174Z,35.23
2018-11-27T19:38:20.036Z,31.40
2018-11-27T19:40:49.285Z,30.07
2018-11-27T19:43:18.120Z,30.20
2018-11-27T19:45:46.804Z,29.00
2018-11-27T19:48:16.257Z,31.33
2018-11-27T19:50:45.495Z,30.97
2018-11-27T19:53:15.297Z,31.03
2018-11-27T19:55:44.277Z,32.57
2018-11-27T19:58:14.092Z,30.17
2018-11-27T20:00:42.876Z,31.67
2018-11-27T20:03:12.812Z,29.70
2018-11-27T20:05:42.310Z,29.60
2018-11-27T20:08:16.151Z,28.80
2018-11-27T20:10:45.400Z,35.03
2018-11-27T20:13:14.419Z,33.10
2018-11-27T20:15:43.028Z,31.20
2018-11-27T20:18:11.768Z,31.77
2018-11-27T20:20:40.298Z,31.80
2018-11-27T20:23:09.067Z,33.27
2018-11-27T20:25:37.823Z,30.87
2018-11-27T20:28:08.258Z,34.03
2018-11-27T20:30:37.945Z,30.47
2018-11-27T20:33:07.331Z,31.60
2018-11-27T20:35:36.089Z,32.63
2018-11-27T20:38:07.421Z,33.10
2018-11-27T20:40:36.331Z,34.30
2018-11-27T20:43:05.415Z,35.53
2018-11-27T20:45:34.257Z,35.20
2018-11-27T20:48:16.800Z,35.17
2018-11-27T20:50:49.877Z,33.30
2018-11-27T20:53:19.086Z,32.80
2018-11-27T20:55:48.440Z,31.57
2018-11-27T20:58:17.246Z,27.80
2018-11-27T21:00:47.668Z,33.20
2018-11-27T21:03:16.593Z,28.50
2018-11-27T21:05:45.279Z,31.07
2018-11-27T21:08:14.161Z,31.77
2018-11-27T21:10:43.267Z,28.87
2018-11-27T21:13:12.868Z,25.03
2018-11-27T21:15:43.226Z,30.27
2018-11-27T21:18:12.694Z,32.03
2018-11-27T21:20:42.359Z,27.57
2018-11-27T21:23:11.099Z,27.87
2018-11-27T21:25:39.886Z,30.93
2018-11-27T21:28:10.295Z,31.23
2018-11-27T21:30:39.293Z,29.90
2018-11-27T21:33:08.409Z,30.30
2018-11-27T21:35:36.978Z,31.07
2018-11-27T21:38:06.173Z,27.97
2018-11-27T21:40:35.787Z,29.53
2018-11-27T21:43:05.356Z,31.60
2018-11-27T21:45:34.106Z,26.80
2018-11-27T21:48:02.965Z,28.07
2018-11-27T21:50:36.946Z,31.70
2018-11-27T21:53:05.995Z,31.40
2018-11-27T21:55:35.499Z,29.07
2018-11-27T21:58:03.770Z,24.67
2018-11-27T22:00:32.742Z,27.10
2018-11-27T22:03:01.926Z,38.47
2018-11-27T22:05:30.888Z,30.87
2018-11-27T22:07:59.860Z,27.53
2018-11-27T22:10:28.763Z,26.63
2018-11-27T22:12:58.841Z,29.17
2018-11-27T22:15:31.506Z,25.90
2018-11-27T22:18:00.946Z,26.60
2018-11-27T22:20:29.807Z,27.67
2018-11-27T22:22:58.639Z,24.37
2018-11-27T22:25:27.397Z,26.23
2018-11-27T22:27:57.553Z,30.00
2018-11-27T22:30:26.285Z,26.93
2018-11-27T22:32:55.603Z,26.57
2018-11-27T22:35:24.368Z,26.83
2018-11-27T22:37:53.682Z,27.63
2018-11-27T22:40:24.354Z,25.30
2018-11-27T22:42:55.026Z,28.13
2018-11-27T22:45:32.008Z,28.33
2018-11-27T22:48:03.812Z,23.73
2018-11-27T22:50:32.446Z,28.43
2018-11-27T22:53:01.238Z,28.37
2018-11-27T22:55:29.894Z,25.03
2018-11-27T22:57:58.784Z,28.47
2018-11-27T23:00:33.540Z,32.27
2018-11-27T23:03:02.544Z,28.47
2018-11-27T23:05:31.257Z,29.37
2018-11-27T23:08:00.000Z,27.07
2018-11-27T23:10:30.027Z,31.30
2018-11-27T23:12:58.659Z,28.03
2018-11-27T23:15:27.608Z,26.90
2018-11-27T23:17:58.135Z,31.23
2018-11-27T23:20:29.009Z,30.00
2018-11-27T23:22:58.894Z,31.97
2018-11-27T23:25:28.174Z,26.13
2018-11-27T23:27:57.362Z,30.50
2018-11-27T23:30:27.155Z,31.33
2018-11-27T23:32:56.062Z,32.57
2018-11-27T23:35:25.689Z,32.27
2018-11-27T23:37:56.567Z,31.57
2018-11-27T23:40:26.782Z,33.07
2018-11-27T23:42:56.782Z,31.80
2018-11-27T23:45:25.285Z,30.00
2018-11-27T23:47:53.914Z,31.43
2018-11-27T23:50:23.079Z,30.93
2018-11-27T23:52:51.758Z,35.07
2018-11-27T23:55:20.876Z,32.37
2018-11-27T23:57:49.483Z,31.20
